createdAt,value
2019-04-27T00:00:15.450Z,45.76
2019-04-27T00:01:13.783Z,45.62
2019-04-27T00:02:13.468Z,44.64
2019-04-27T00:03:13.498Z,47.54
2019-04-27T00:04:16.189Z,48.39
2019-04-27T00:05:14.374Z,46.90
2019-04-27T00:06:13.558Z,44.99
2019-04-27T00:07:13.137Z,53.44
2019-04-27T00:08:13.935Z,46.72
2019-04-27T00:09:14.479Z,44.56
2019-04-27T00:10:13.686Z,55.92
2019-04-27T00:11:13.690Z,45.62
2019-04-27T00:12:16.435Z,48.33
2019-04-27T00:13:15.200Z,46.47
2019-04-27T00:14:14.920Z,43.55
2019-04-27T00:15:13.454Z,44.05
2019-04-27T00:16:13.465Z,47.07
2019-04-27T00:17:13.426Z,47.11
2019-04-27T00:18:13.997Z,43.27
2019-04-27T00:19:13.427Z,43.88
2019-04-27T00:20:13.127Z,53.01
2019-04-27T00:21:13.519Z,43.31
2019-04-27T00:22:14.624Z,42.55
2019-04-27T00:23:13.239Z,48.20
2019-04-27T00:24:13.511Z,48.79
2019-04-27T00:25:13.133Z,45.01
2019-04-27T00:26:13.439Z,43.03
2019-04-27T00:27:13.372Z,43.07
2019-04-27T00:28:13.416Z,43.08
2019-04-27T00:29:13.682Z,42.67
2019-04-27T00:30:13.841Z,44.65
2019-04-27T00:31:13.196Z,46.58
2019-04-27T00:32:13.366Z,42.67
2019-04-27T00:33:13.674Z,43.70
2019-04-27T00:34:13.336Z,47.31
2019-04-27T00:35:13.809Z,42.55
2019-04-27T00:36:13.364Z,40.85
2019-04-27T00:37:13.594Z,41.64
2019-04-27T00:38:13.135Z,43.85
2019-04-27T00:39:13.855Z,42.72
2019-04-27T00:40:14.647Z,41.88
2019-04-27T00:41:14.057Z,42.72
2019-04-27T00:42:13.475Z,41.63
2019-04-27T00:43:13.957Z,42.93
2019-04-27T00:44:13.503Z,42.28
2019-04-27T00:45:13.491Z,42.16
2019-04-27T00:46:13.828Z,41.90
2019-04-27T00:47:13.816Z,41.83
2019-04-27T00:48:13.509Z,42.65
2019-04-27T00:49:13.747Z,44.77
2019-04-27T00:50:13.506Z,45.65
2019-04-27T00:51:12.933Z,43.69
2019-04-27T00:52:13.911Z,47.39
2019-04-27T00:53:13.506Z,42.89
2019-04-27T00:54:13.641Z,44.01
2019-04-27T00:55:13.384Z,42.94
2019-04-27T00:56:13.876Z,46.02
2019-04-27T00:57:13.055Z,47.56
2019-04-27T00:58:13.279Z,44.38
2019-04-27T00:59:13.738Z,46.71
2019-04-27T01:00:13.439Z,43.63
2019-04-27T01:01:12.683Z,43.42
2019-04-27T01:02:13.523Z,46.08
2019-04-27T01:03:13.990Z,46.19
2019-04-27T01:04:13.645Z,45.83
2019-04-27T01:05:13.207Z,42.94
2019-04-27T01:06:13.098Z,53.50
2019-04-27T01:07:14.303Z,53.79
2019-04-27T01:08:13.786Z,50.38
2019-04-27T01:09:13.418Z,45.21
2019-04-27T01:10:13.466Z,44.66
2019-04-27T01:11:13.979Z,42.26
2019-04-27T01:12:13.601Z,45.28
2019-04-27T01:13:13.245Z,43.05
2019-04-27T01:14:12.836Z,41.29
2019-04-27T01:15:13.729Z,42.59
2019-04-27T01:16:15.646Z,41.05
2019-04-27T01:17:13.146Z,42.50
2019-04-27T01:18:15.376Z,41.27
2019-04-27T01:19:13.140Z,41.77
2019-04-27T01:20:12.118Z,41.03
2019-04-27T01:21:12.983Z,41.23
2019-04-27T01:22:12.134Z,40.51
2019-04-27T01:23:12.102Z,40.41
2019-04-27T01:24:12.113Z,41.07
2019-04-27T01:25:12.106Z,42.10
2019-04-27T01:26:12.981Z,40.77
2019-04-27T01:27:12.094Z,41.21
2019-04-27T01:28:12.092Z,40.91
2019-04-27T01:29:12.070Z,41.43
2019-04-27T01:30:12.055Z,42.19
2019-04-27T01:31:12.059Z,42.91
2019-04-27T01:32:12.057Z,41.57
2019-04-27T01:33:12.036Z,41.54
2019-04-27T01:34:12.074Z,41.08
2019-04-27T01:35:12.025Z,40.40
2019-04-27T01:36:12.013Z,41.55
2019-04-27T01:37:12.028Z,43.61
2019-04-27T01:38:12.059Z,41.72
2019-04-27T01:39:12.028Z,41.83
2019-04-27T01:40:11.978Z,42.09
2019-04-27T01:41:11.998Z,41.63
2019-04-27T01:42:11.986Z,41.85
2019-04-27T01:43:12.013Z,42.16
2019-04-27T01:44:12.980Z,43.68
2019-04-27T01:45:11.995Z,45.34
2019-04-27T01:46:11.974Z,41.13
2019-04-27T01:47:11.960Z,43.74
2019-04-27T01:48:23.104Z,47.63
2019-04-27T01:49:13.998Z,42.60
2019-04-27T01:50:11.956Z,41.64
2019-04-27T01:51:12.484Z,44.54
2019-04-27T01:52:11.970Z,41.93
2019-04-27T01:53:11.953Z,42.66
2019-04-27T01:54:11.960Z,44.30
2019-04-27T01:55:11.925Z,44.78
2019-04-27T01:56:11.969Z,49.57
2019-04-27T01:57:11.939Z,46.22
2019-04-27T01:58:11.914Z,44.38
2019-04-27T01:59:11.944Z,41.74
2019-04-27T02:00:11.896Z,41.05
2019-04-27T02:01:11.896Z,46.50
2019-04-27T02:02:11.903Z,45.55
2019-04-27T02:03:11.931Z,47.08
2019-04-27T02:04:11.888Z,42.43
2019-04-27T02:05:11.886Z,41.71
2019-04-27T02:06:11.863Z,41.17
2019-04-27T02:07:11.854Z,40.87
2019-04-27T02:08:11.850Z,42.47
2019-04-27T02:09:11.839Z,43.44
2019-04-27T02:10:11.853Z,42.47
2019-04-27T02:11:11.897Z,42.45
2019-04-27T02:12:11.879Z,42.01
2019-04-27T02:13:11.812Z,41.00
2019-04-27T02:14:11.798Z,41.91
2019-04-27T02:15:11.820Z,41.03
2019-04-27T02:16:11.782Z,41.88
2019-04-27T02:17:11.806Z,42.15
2019-04-27T02:18:12.769Z,42.08
2019-04-27T02:19:11.754Z,41.67
2019-04-27T02:20:11.773Z,40.64
2019-04-27T02:21:11.776Z,41.47
2019-04-27T02:22:12.483Z,41.86
2019-04-27T02:23:11.778Z,42.39
2019-04-27T02:24:11.755Z,41.46
2019-04-27T02:25:11.770Z,42.31
2019-04-27T02:26:11.747Z,41.67
2019-04-27T02:27:11.758Z,41.97
2019-04-27T02:28:11.737Z,42.06
2019-04-27T02:29:11.731Z,41.18
2019-04-27T02:30:11.923Z,41.64
2019-04-27T02:31:11.694Z,42.45
2019-04-27T02:32:11.694Z,43.36
2019-04-27T02:33:12.865Z,47.16
2019-04-27T02:34:12.662Z,44.96
2019-04-27T02:35:11.678Z,43.40
2019-04-27T02:36:14.771Z,40.87
2019-04-27T02:37:12.675Z,41.52
2019-04-27T02:38:11.652Z,42.86
2019-04-27T02:39:11.639Z,41.33
2019-04-27T02:40:11.670Z,41.05
2019-04-27T02:41:11.622Z,48.87
2019-04-27T02:42:11.600Z,43.17
2019-04-27T02:43:11.614Z,41.40
2019-04-27T02:44:11.612Z,41.77
2019-04-27T02:45:11.615Z,44.60
2019-04-27T02:46:11.601Z,46.63
2019-04-27T02:47:11.596Z,41.81
2019-04-27T02:48:11.588Z,43.19
2019-04-27T02:49:11.586Z,40.65
2019-04-27T02:50:11.561Z,43.22
2019-04-27T02:51:11.568Z,41.13
2019-04-27T02:52:11.543Z,41.74
2019-04-27T02:53:11.538Z,41.24
2019-04-27T02:54:12.616Z,42.32
2019-04-27T02:55:12.516Z,42.31
2019-04-27T02:56:11.551Z,43.48
2019-04-27T02:57:11.532Z,47.51
2019-04-27T02:58:12.954Z,43.93
2019-04-27T02:59:12.525Z,43.12
2019-04-27T03:00:11.497Z,43.08
2019-04-27T03:01:11.490Z,45.08
2019-04-27T03:02:11.465Z,43.06
2019-04-27T03:03:11.472Z,44.29
2019-04-27T03:04:11.476Z,46.50
2019-04-27T03:05:13.160Z,47.10
2019-04-27T03:06:12.484Z,43.39
2019-04-27T03:07:11.714Z,44.51
2019-04-27T03:08:11.454Z,45.25
2019-04-27T03:09:11.421Z,44.39
2019-04-27T03:10:11.416Z,45.27
2019-04-27T03:11:11.419Z,45.21
2019-04-27T03:12:11.414Z,46.21
2019-04-27T03:13:11.396Z,46.57
2019-04-27T03:14:27.972Z,45.74
2019-04-27T03:15:13.389Z,44.14
2019-04-27T03:16:13.416Z,43.58
2019-04-27T03:17:11.979Z,44.87
2019-04-27T03:18:11.362Z,44.87
2019-04-27T03:19:17.447Z,45.43
2019-04-27T03:20:13.373Z,46.10
2019-04-27T03:21:13.186Z,46.09
2019-04-27T03:22:12.348Z,46.67
2019-04-27T03:23:11.352Z,49.32
2019-04-27T03:24:11.330Z,51.46
2019-04-27T03:25:14.905Z,48.54
2019-04-27T03:26:12.343Z,48.35
2019-04-27T03:27:11.312Z,48.01
2019-04-27T03:28:11.305Z,46.39
2019-04-27T03:29:11.303Z,49.57
2019-04-27T03:30:12.503Z,49.21
2019-04-27T03:31:13.762Z,51.86
2019-04-27T03:32:13.163Z,50.44
2019-04-27T03:33:12.553Z,48.49
2019-04-27T03:34:16.457Z,48.71
2019-04-27T03:35:13.367Z,49.28
2019-04-27T03:36:13.226Z,49.68
2019-04-27T03:37:12.254Z,51.76
2019-04-27T03:38:12.503Z,48.88
2019-04-27T03:39:12.229Z,48.96
2019-04-27T03:40:11.279Z,49.48
2019-04-27T03:41:11.225Z,48.36
2019-04-27T03:42:11.270Z,45.61
2019-04-27T03:43:11.745Z,45.87
2019-04-27T03:44:12.980Z,46.58
2019-04-27T03:45:12.019Z,48.55
2019-04-27T03:46:11.230Z,49.18
2019-04-27T03:47:12.713Z,47.90
2019-04-27T03:48:12.212Z,47.45
2019-04-27T03:49:20.349Z,48.54
2019-04-27T03:50:13.941Z,44.04
2019-04-27T03:51:12.173Z,44.16
2019-04-27T03:52:11.529Z,42.67
2019-04-27T03:53:11.139Z,43.84
2019-04-27T03:54:11.132Z,46.02
2019-04-27T03:55:11.125Z,43.21
2019-04-27T03:56:11.107Z,42.48
2019-04-27T03:57:15.019Z,43.64
2019-04-27T03:58:12.143Z,45.73
2019-04-27T03:59:12.103Z,49.04
2019-04-27T04:00:11.076Z,52.16
2019-04-27T04:01:11.097Z,47.13
2019-04-27T04:02:11.935Z,46.31
2019-04-27T04:03:11.081Z,49.01
2019-04-27T04:04:11.148Z,42.50
2019-04-27T04:05:11.066Z,42.96
2019-04-27T04:06:11.041Z,44.99
2019-04-27T04:07:11.158Z,49.55
2019-04-27T04:08:12.032Z,44.92
2019-04-27T04:09:11.025Z,45.73
2019-04-27T04:10:11.061Z,43.64
2019-04-27T04:11:11.008Z,42.61
2019-04-27T04:12:11.037Z,42.38
2019-04-27T04:13:11.003Z,41.62
2019-04-27T04:14:10.985Z,42.16
2019-04-27T04:15:10.999Z,42.13
2019-04-27T04:16:11.066Z,44.50
2019-04-27T04:17:12.722Z,51.19
2019-04-27T04:18:11.947Z,52.24
2019-04-27T04:19:10.993Z,43.41
2019-04-27T04:20:10.980Z,43.72
2019-04-27T04:21:10.980Z,42.62
2019-04-27T04:22:10.974Z,43.31
2019-04-27T04:23:11.491Z,43.78
2019-04-27T04:24:12.112Z,43.30
2019-04-27T04:25:11.959Z,43.13
2019-04-27T04:26:10.961Z,43.48
2019-04-27T04:27:10.984Z,42.52
2019-04-27T04:28:10.969Z,43.05
2019-04-27T04:29:10.939Z,43.07
2019-04-27T04:30:12.402Z,43.37
2019-04-27T04:31:13.858Z,43.13
2019-04-27T04:32:11.937Z,43.95
2019-04-27T04:33:10.903Z,51.28
2019-04-27T04:34:12.042Z,51.39
2019-04-27T04:35:11.907Z,46.80
2019-04-27T04:36:11.918Z,45.12
2019-04-27T04:37:10.930Z,45.83
2019-04-27T04:38:10.898Z,44.12
2019-04-27T04:39:12.537Z,45.48
2019-04-27T04:40:11.895Z,45.31
2019-04-27T04:41:10.894Z,46.39
2019-04-27T04:42:10.875Z,47.71
2019-04-27T04:43:11.136Z,45.12
2019-04-27T04:44:12.480Z,48.48
2019-04-27T04:45:11.863Z,52.55
2019-04-27T04:46:13.255Z,47.89
2019-04-27T04:47:11.861Z,43.94
2019-04-27T04:48:10.834Z,47.49
2019-04-27T04:49:10.826Z,47.55
2019-04-27T04:50:14.927Z,42.83
2019-04-27T04:51:11.804Z,43.02
2019-04-27T04:52:10.798Z,43.24
2019-04-27T04:53:12.392Z,44.72
2019-04-27T04:54:11.787Z,44.22
2019-04-27T04:55:10.792Z,46.05
2019-04-27T04:56:10.866Z,45.05
2019-04-27T04:57:10.770Z,46.09
2019-04-27T04:58:10.781Z,48.35
2019-04-27T04:59:10.776Z,50.50
2019-04-27T05:00:10.750Z,46.72
2019-04-27T05:01:10.742Z,45.01
2019-04-27T05:02:10.937Z,44.40
2019-04-27T05:03:10.740Z,46.05
2019-04-27T05:04:10.714Z,47.86
2019-04-27T05:05:10.712Z,49.23
2019-04-27T05:06:10.721Z,50.27
2019-04-27T05:07:10.702Z,46.79
2019-04-27T05:08:10.751Z,45.64
2019-04-27T05:09:10.718Z,44.90
2019-04-27T05:10:10.731Z,46.24
2019-04-27T05:11:10.700Z,47.68
2019-04-27T05:12:10.717Z,49.81
2019-04-27T05:13:10.711Z,45.15
2019-04-27T05:14:10.691Z,45.46
2019-04-27T05:15:10.676Z,44.63
2019-04-27T05:16:10.678Z,43.98
2019-04-27T05:17:10.706Z,46.60
2019-04-27T05:18:10.691Z,51.12
2019-04-27T05:19:11.326Z,45.60
2019-04-27T05:20:22.314Z,45.64
2019-04-27T05:21:12.698Z,44.98
2019-04-27T05:22:10.680Z,44.64
2019-04-27T05:23:10.683Z,45.58
2019-04-27T05:24:10.654Z,50.70
2019-04-27T05:25:11.017Z,56.01
2019-04-27T05:26:11.646Z,46.73
2019-04-27T05:27:10.638Z,45.32
2019-04-27T05:28:10.631Z,46.21
2019-04-27T05:29:10.685Z,46.75
2019-04-27T05:30:10.619Z,44.22
2019-04-27T05:31:10.607Z,43.34
2019-04-27T05:32:10.586Z,47.85
2019-04-27T05:33:10.602Z,45.50
2019-04-27T05:34:10.598Z,44.99
2019-04-27T05:35:10.586Z,45.40
2019-04-27T05:36:10.559Z,44.92
2019-04-27T05:37:10.589Z,47.96
2019-04-27T05:38:13.240Z,48.46
2019-04-27T05:39:13.242Z,48.66
2019-04-27T05:40:11.566Z,50.29
2019-04-27T05:41:10.570Z,49.20
2019-04-27T05:42:16.770Z,47.97
2019-04-27T05:43:12.536Z,45.57
2019-04-27T05:44:12.712Z,45.91
2019-04-27T05:45:15.233Z,44.24
2019-04-27T05:46:12.413Z,45.58
2019-04-27T05:47:13.164Z,44.44
2019-04-27T05:48:11.523Z,44.43
2019-04-27T05:49:10.547Z,45.86
2019-04-27T05:50:13.342Z,45.02
2019-04-27T05:51:11.524Z,43.88
2019-04-27T05:52:14.614Z,43.72
2019-04-27T05:53:42.462Z,43.23
2019-04-27T05:54:10.473Z,44.65
2019-04-27T05:55:10.624Z,44.38
2019-04-27T05:56:11.458Z,44.95
2019-04-27T05:57:10.453Z,45.11
2019-04-27T05:58:10.448Z,44.42
2019-04-27T05:59:10.444Z,43.80
2019-04-27T06:00:10.432Z,43.87
2019-04-27T06:01:11.267Z,43.82
2019-04-27T06:02:11.418Z,44.55
2019-04-27T06:03:10.424Z,44.12
2019-04-27T06:04:10.424Z,46.03
2019-04-27T06:05:10.410Z,44.85
2019-04-27T06:06:10.411Z,45.96
2019-04-27T06:07:10.396Z,46.47
2019-04-27T06:08:10.387Z,45.55
2019-04-27T06:09:10.390Z,45.58
2019-04-27T06:10:10.377Z,47.07
2019-04-27T06:11:10.362Z,44.64
2019-04-27T06:12:10.359Z,44.10
2019-04-27T06:13:10.690Z,44.39
2019-04-27T06:14:11.354Z,43.88
2019-04-27T06:15:10.338Z,44.38
2019-04-27T06:16:10.327Z,46.01
2019-04-27T06:17:10.323Z,47.31
2019-04-27T06:18:10.314Z,49.65
2019-04-27T06:19:10.342Z,48.80
2019-04-27T06:20:10.321Z,46.31
2019-04-27T06:21:10.306Z,46.44
2019-04-27T06:22:10.297Z,46.90
2019-04-27T06:23:10.291Z,48.39
2019-04-27T06:24:10.470Z,46.50
2019-04-27T06:25:11.786Z,46.80
2019-04-27T06:26:11.757Z,48.84
2019-04-27T06:27:11.278Z,47.30
2019-04-27T06:28:10.288Z,47.32
2019-04-27T06:29:10.293Z,46.62
2019-04-27T06:30:10.269Z,47.05
2019-04-27T06:31:10.237Z,49.60
2019-04-27T06:32:10.910Z,48.54
2019-04-27T06:33:11.225Z,48.26
2019-04-27T06:34:10.238Z,48.21
2019-04-27T06:35:12.369Z,48.81
2019-04-27T06:36:11.207Z,48.11
2019-04-27T06:37:10.206Z,48.15
2019-04-27T06:38:11.594Z,47.63
2019-04-27T06:39:10.222Z,47.42
2019-04-27T06:40:10.212Z,46.37
2019-04-27T06:41:10.277Z,46.82
2019-04-27T06:42:17.930Z,52.44
2019-04-27T06:43:12.180Z,51.33
2019-04-27T06:44:11.442Z,48.87
2019-04-27T06:45:11.179Z,49.27
2019-04-27T06:46:10.154Z,46.64
2019-04-27T06:47:10.144Z,47.99
2019-04-27T06:48:10.136Z,48.80
2019-04-27T06:49:11.093Z,49.57
2019-04-27T06:50:11.133Z,51.39
2019-04-27T06:51:10.141Z,50.74
2019-04-27T06:52:10.114Z,47.89
2019-04-27T06:53:10.113Z,46.27
2019-04-27T06:54:10.098Z,45.42
2019-04-27T06:55:10.109Z,46.16
2019-04-27T06:56:10.088Z,44.21
2019-04-27T06:57:10.091Z,43.73
2019-04-27T06:58:10.071Z,44.25
2019-04-27T06:59:10.071Z,45.25
2019-04-27T07:00:10.064Z,45.25
2019-04-27T07:01:11.076Z,44.98
2019-04-27T07:02:11.042Z,44.83
2019-04-27T07:03:10.624Z,45.26
2019-04-27T07:04:11.101Z,45.37
2019-04-27T07:05:10.030Z,45.55
2019-04-27T07:06:09.999Z,46.89
2019-04-27T07:07:10.997Z,48.04
2019-04-27T07:08:09.995Z,46.42
2019-04-27T07:09:09.984Z,46.76
2019-04-27T07:10:09.990Z,46.71
2019-04-27T07:11:11.575Z,47.63
2019-04-27T07:12:10.957Z,48.39
2019-04-27T07:13:09.954Z,48.39
2019-04-27T07:14:11.599Z,46.97
2019-04-27T07:15:09.959Z,44.86
2019-04-27T07:16:09.929Z,44.16
2019-04-27T07:17:09.922Z,45.07
2019-04-27T07:18:09.931Z,46.51
2019-04-27T07:19:09.909Z,46.25
2019-04-27T07:20:09.910Z,45.97
2019-04-27T07:21:16.896Z,45.47
2019-04-27T07:22:11.880Z,45.60
2019-04-27T07:23:10.881Z,46.24
2019-04-27T07:24:09.925Z,46.02
2019-04-27T07:25:09.876Z,47.19
2019-04-27T07:26:09.859Z,45.75
2019-04-27T07:27:09.848Z,44.14
2019-04-27T07:28:09.867Z,43.83
2019-04-27T07:29:09.909Z,44.33
2019-04-27T07:30:11.774Z,43.54
2019-04-27T07:31:10.836Z,46.46
2019-04-27T07:32:09.827Z,44.65
2019-04-27T07:33:10.511Z,42.69
2019-04-27T07:34:09.817Z,42.15
2019-04-27T07:35:09.981Z,43.45
2019-04-27T07:36:09.823Z,48.86
2019-04-27T07:37:11.130Z,46.17
2019-04-27T07:38:10.016Z,45.33
2019-04-27T07:39:11.573Z,45.20
2019-04-27T07:40:10.800Z,44.26
2019-04-27T07:41:09.780Z,44.25
2019-04-27T07:42:09.784Z,44.22
2019-04-27T07:43:09.766Z,45.57
2019-04-27T07:44:10.192Z,43.04
2019-04-27T07:45:11.288Z,43.40
2019-04-27T07:46:10.766Z,46.78
2019-04-27T07:47:09.824Z,46.12
2019-04-27T07:48:10.748Z,47.12
2019-04-27T07:49:09.744Z,41.83
2019-04-27T07:50:09.787Z,45.43
2019-04-27T07:51:09.730Z,42.27
2019-04-27T07:52:09.725Z,41.28
2019-04-27T07:53:09.747Z,40.95
2019-04-27T07:54:09.740Z,43.53
2019-04-27T07:55:09.913Z,44.78
2019-04-27T07:56:10.841Z,44.55
2019-04-27T07:57:09.936Z,44.92
2019-04-27T07:58:10.724Z,45.37
2019-04-27T07:59:09.704Z,44.51
2019-04-27T08:00:09.720Z,44.56
2019-04-27T08:01:09.687Z,42.97
2019-04-27T08:02:11.011Z,49.95
2019-04-27T08:03:10.672Z,51.61
2019-04-27T08:04:09.664Z,45.72
2019-04-27T08:05:09.656Z,50.04
2019-04-27T08:06:10.897Z,45.74
2019-04-27T08:07:10.645Z,48.39
2019-04-27T08:08:09.637Z,48.15
2019-04-27T08:09:09.623Z,45.56
2019-04-27T08:10:09.888Z,46.76
2019-04-27T08:11:11.389Z,48.40
2019-04-27T08:12:11.015Z,46.18
2019-04-27T08:13:10.593Z,45.76
2019-04-27T08:14:09.592Z,46.83
2019-04-27T08:15:09.581Z,48.40
2019-04-27T08:16:09.584Z,52.21
2019-04-27T08:17:09.826Z,51.02
2019-04-27T08:18:10.556Z,47.01
2019-04-27T08:19:09.992Z,48.82
2019-04-27T08:20:10.549Z,45.86
2019-04-27T08:21:09.545Z,44.99
2019-04-27T08:22:09.777Z,45.44
2019-04-27T08:23:10.519Z,45.80
2019-04-27T08:24:11.088Z,45.89
2019-04-27T08:25:09.647Z,45.90
2019-04-27T08:26:09.509Z,45.53
2019-04-27T08:27:09.494Z,42.67
2019-04-27T08:28:10.457Z,46.18
2019-04-27T08:29:09.469Z,49.89
2019-04-27T08:30:30.473Z,45.97
2019-04-27T08:31:10.459Z,43.80
2019-04-27T08:32:09.735Z,44.00
2019-04-27T08:33:10.462Z,46.73
2019-04-27T08:34:09.459Z,44.58
2019-04-27T08:35:09.595Z,47.81
2019-04-27T08:36:10.458Z,46.31
2019-04-27T08:37:09.431Z,46.50
2019-04-27T08:38:09.433Z,46.70
2019-04-27T08:39:09.426Z,46.41
2019-04-27T08:40:09.447Z,47.03
2019-04-27T08:41:09.422Z,46.91
2019-04-27T08:42:09.642Z,46.68
2019-04-27T08:43:10.393Z,47.70
2019-04-27T08:44:09.842Z,48.01
2019-04-27T08:45:10.378Z,45.20
2019-04-27T08:46:09.387Z,44.90
2019-04-27T08:47:09.696Z,44.02
2019-04-27T08:48:10.385Z,44.28
2019-04-27T08:49:10.202Z,44.89
2019-04-27T08:50:09.384Z,48.46
2019-04-27T08:51:09.643Z,44.35
2019-04-27T08:52:10.379Z,43.99
2019-04-27T08:53:09.862Z,44.31
2019-04-27T08:54:10.385Z,47.57
2019-04-27T08:55:09.661Z,45.47
2019-04-27T08:56:10.376Z,48.22
2019-04-27T08:57:09.808Z,46.08
2019-04-27T08:58:10.399Z,45.36
2019-04-27T08:59:09.620Z,47.26
2019-04-27T09:00:10.337Z,47.51
2019-04-27T09:01:10.343Z,46.84
2019-04-27T09:02:10.327Z,47.27
2019-04-27T09:03:09.645Z,47.34
2019-04-27T09:04:11.267Z,47.72
2019-04-27T09:05:10.301Z,47.72
2019-04-27T09:06:09.302Z,49.58
2019-04-27T09:07:09.302Z,49.49
2019-04-27T09:08:09.277Z,46.95
2019-04-27T09:09:09.579Z,46.56
2019-04-27T09:10:10.313Z,46.16
2019-04-27T09:11:09.273Z,45.74
2019-04-27T09:12:09.574Z,45.72
2019-04-27T09:13:10.244Z,46.66
2019-04-27T09:14:09.230Z,44.31
2019-04-27T09:15:10.001Z,43.13
2019-04-27T09:16:11.141Z,46.11
2019-04-27T09:17:09.685Z,46.05
2019-04-27T09:18:10.201Z,48.35
2019-04-27T09:19:09.185Z,47.37
2019-04-27T09:20:09.535Z,46.09
2019-04-27T09:21:10.604Z,45.06
2019-04-27T09:22:15.684Z,45.74
2019-04-27T09:23:11.160Z,45.30
2019-04-27T09:24:09.494Z,47.67
2019-04-27T09:25:10.145Z,51.27
2019-04-27T09:26:09.565Z,49.21
2019-04-27T09:27:10.120Z,49.84
2019-04-27T09:28:10.132Z,45.05
2019-04-27T09:29:09.120Z,46.09
2019-04-27T09:30:10.268Z,47.90
2019-04-27T09:31:09.333Z,43.51
2019-04-27T09:32:10.093Z,47.50
2019-04-27T09:33:09.090Z,45.72
2019-04-27T09:34:10.560Z,45.93
2019-04-27T09:35:09.071Z,50.42
2019-04-27T09:36:09.125Z,48.07
2019-04-27T09:37:09.077Z,45.99
2019-04-27T09:38:09.045Z,48.95
2019-04-27T09:39:09.048Z,48.80
2019-04-27T09:40:09.035Z,48.74
2019-04-27T09:41:09.022Z,49.71
2019-04-27T09:42:09.120Z,52.06
2019-04-27T09:43:09.971Z,53.98
2019-04-27T09:44:09.119Z,53.21
2019-04-27T09:45:09.034Z,52.15
2019-04-27T09:46:08.995Z,51.37
2019-04-27T09:47:09.007Z,51.95
2019-04-27T09:48:09.007Z,47.85
2019-04-27T09:49:10.749Z,47.71
2019-04-27T09:50:09.019Z,51.36
2019-04-27T09:51:08.972Z,48.20
2019-04-27T09:52:08.961Z,46.97
2019-04-27T09:53:08.937Z,49.46
2019-04-27T09:54:08.976Z,47.94
2019-04-27T09:55:08.963Z,47.35
2019-04-27T09:56:08.964Z,45.82
2019-04-27T09:57:08.948Z,52.25
2019-04-27T09:58:08.931Z,50.31
2019-04-27T09:59:08.908Z,46.66
2019-04-27T10:00:08.912Z,49.38
2019-04-27T10:01:09.081Z,51.68
2019-04-27T10:02:09.005Z,52.71
2019-04-27T10:03:08.909Z,51.05
2019-04-27T10:04:08.980Z,49.21
2019-04-27T10:05:09.118Z,49.94
2019-04-27T10:06:08.926Z,49.79
2019-04-27T10:07:08.991Z,50.32
2019-04-27T10:08:08.958Z,51.29
2019-04-27T10:09:08.899Z,50.68
2019-04-27T10:10:08.866Z,50.10
2019-04-27T10:11:08.856Z,50.41
2019-04-27T10:12:08.865Z,50.05
2019-04-27T10:13:08.975Z,48.59
2019-04-27T10:14:09.025Z,50.48
2019-04-27T10:15:08.805Z,50.17
2019-04-27T10:16:08.802Z,47.74
2019-04-27T10:17:08.840Z,50.42
2019-04-27T10:18:08.775Z,50.44
2019-04-27T10:19:08.762Z,52.19
2019-04-27T10:20:08.769Z,49.87
2019-04-27T10:21:08.759Z,50.25
2019-04-27T10:22:08.795Z,50.71
2019-04-27T10:23:08.746Z,52.76
2019-04-27T10:24:08.758Z,51.77
2019-04-27T10:25:08.734Z,51.72
2019-04-27T10:26:08.806Z,53.05
2019-04-27T10:27:08.772Z,49.99
2019-04-27T10:28:08.877Z,49.86
2019-04-27T10:29:08.736Z,49.74
2019-04-27T10:30:08.709Z,49.63
2019-04-27T10:31:08.712Z,49.63
2019-04-27T10:32:08.719Z,50.52
2019-04-27T10:33:08.710Z,49.36
2019-04-27T10:34:08.824Z,49.44
2019-04-27T10:35:08.684Z,49.83
2019-04-27T10:36:08.722Z,49.15
2019-04-27T10:37:09.489Z,48.92
2019-04-27T10:38:08.704Z,49.47
2019-04-27T10:39:08.661Z,50.09
2019-04-27T10:40:08.632Z,49.69
2019-04-27T10:41:08.661Z,50.82
2019-04-27T10:42:08.693Z,52.74
2019-04-27T10:43:08.786Z,51.11
2019-04-27T10:44:08.695Z,50.20
2019-04-27T10:45:08.627Z,50.53
2019-04-27T10:46:08.621Z,52.62
2019-04-27T10:47:08.598Z,49.74
2019-04-27T10:48:08.608Z,47.41
2019-04-27T10:49:08.565Z,46.96
2019-04-27T10:50:08.670Z,46.62
2019-04-27T10:51:08.586Z,47.11
2019-04-27T10:52:08.603Z,46.27
2019-04-27T10:53:08.552Z,48.68
2019-04-27T10:54:08.580Z,49.67
2019-04-27T10:55:08.553Z,52.47
2019-04-27T10:56:08.536Z,49.47
2019-04-27T10:57:08.509Z,46.60
2019-04-27T10:58:08.524Z,46.18
2019-04-27T10:59:09.760Z,46.64
2019-04-27T11:00:09.482Z,46.01
2019-04-27T11:01:08.506Z,46.62
2019-04-27T11:02:08.552Z,47.27
2019-04-27T11:03:08.502Z,46.14
2019-04-27T11:04:08.472Z,45.17
2019-04-27T11:05:08.489Z,47.33
2019-04-27T11:06:08.470Z,46.81
2019-04-27T11:07:08.463Z,47.96
2019-04-27T11:08:08.523Z,47.38
2019-04-27T11:09:08.450Z,45.82
2019-04-27T11:10:08.430Z,46.16
2019-04-27T11:11:08.432Z,46.23
2019-04-27T11:12:08.415Z,47.55
2019-04-27T11:13:08.458Z,46.44
2019-04-27T11:14:08.444Z,46.75
2019-04-27T11:15:08.442Z,46.66
2019-04-27T11:16:08.383Z,47.06
2019-04-27T11:17:08.378Z,48.24
2019-04-27T11:18:08.372Z,47.98
2019-04-27T11:19:08.381Z,46.92
2019-04-27T11:20:08.469Z,46.75
2019-04-27T11:21:08.378Z,46.64
2019-04-27T11:22:08.382Z,47.83
2019-04-27T11:23:12.279Z,50.59
2019-04-27T11:24:09.370Z,49.16
2019-04-27T11:25:08.329Z,50.15
2019-04-27T11:26:08.334Z,54.37
2019-04-27T11:27:08.339Z,53.45
2019-04-27T11:28:08.311Z,50.36
2019-04-27T11:29:08.393Z,50.19
2019-04-27T11:30:08.458Z,46.99
2019-04-27T11:31:08.301Z,47.20
2019-04-27T11:32:08.280Z,50.33
2019-04-27T11:33:08.288Z,52.03
2019-04-27T11:34:08.288Z,47.64
2019-04-27T11:35:08.283Z,49.05
2019-04-27T11:36:08.329Z,51.29
2019-04-27T11:37:08.267Z,51.68
2019-04-27T11:38:08.232Z,51.62
2019-04-27T11:39:08.245Z,49.87
2019-04-27T11:40:08.252Z,49.03
2019-04-27T11:41:08.257Z,49.58
2019-04-27T11:42:08.236Z,48.88
2019-04-27T11:43:08.218Z,48.93
2019-04-27T11:44:08.214Z,50.92
2019-04-27T11:45:08.207Z,50.32
2019-04-27T11:46:08.201Z,48.83
2019-04-27T11:47:09.198Z,47.75
2019-04-27T11:48:08.179Z,46.80
2019-04-27T11:49:08.187Z,48.10
2019-04-27T11:50:08.418Z,48.94
2019-04-27T11:51:11.025Z,47.82
2019-04-27T11:52:09.153Z,47.44
2019-04-27T11:53:19.688Z,47.02
2019-04-27T11:54:10.138Z,47.27
2019-04-27T11:55:08.124Z,49.36
2019-04-27T11:56:08.164Z,50.21
2019-04-27T11:57:08.115Z,48.94
2019-04-27T11:58:08.098Z,50.12
2019-04-27T11:59:08.101Z,51.19
2019-04-27T12:00:08.113Z,52.91
2019-04-27T12:01:08.520Z,49.92
2019-04-27T12:02:09.093Z,52.85
2019-04-27T12:03:08.066Z,47.72
2019-04-27T12:04:08.069Z,49.39
2019-04-27T12:05:08.098Z,46.95
2019-04-27T12:06:08.049Z,48.78
2019-04-27T12:07:08.031Z,48.54
2019-04-27T12:08:08.026Z,47.86
2019-04-27T12:09:08.061Z,51.29
2019-04-27T12:10:08.023Z,49.71
2019-04-27T12:11:08.030Z,54.82
2019-04-27T12:12:13.572Z,50.80
2019-04-27T12:13:10.003Z,49.57
2019-04-27T12:14:07.994Z,52.22
2019-04-27T12:15:07.988Z,49.50
2019-04-27T12:16:07.987Z,49.21
2019-04-27T12:17:07.963Z,48.13
2019-04-27T12:18:09.073Z,47.68
2019-04-27T12:19:08.989Z,47.66
2019-04-27T12:20:07.976Z,47.02
2019-04-27T12:21:07.990Z,52.86
2019-04-27T12:22:07.967Z,51.54
2019-04-27T12:23:07.952Z,48.58
2019-04-27T12:24:07.946Z,48.38
2019-04-27T12:25:07.937Z,49.01
2019-04-27T12:26:07.938Z,49.94
2019-04-27T12:27:07.919Z,52.40
2019-04-27T12:28:07.917Z,48.15
2019-04-27T12:29:07.904Z,47.38
2019-04-27T12:30:07.916Z,47.96
2019-04-27T12:31:09.126Z,47.09
2019-04-27T12:32:07.915Z,47.86
2019-04-27T12:33:07.892Z,48.58
2019-04-27T12:34:07.887Z,47.23
2019-04-27T12:35:07.890Z,47.75
2019-04-27T12:36:07.907Z,47.52
2019-04-27T12:37:07.894Z,46.21
2019-04-27T12:38:07.882Z,45.99
2019-04-27T12:39:07.860Z,47.17
2019-04-27T12:40:07.860Z,49.50
2019-04-27T12:41:08.854Z,51.33
2019-04-27T12:42:07.882Z,48.32
2019-04-27T12:43:07.881Z,50.51
2019-04-27T12:44:07.862Z,50.39
2019-04-27T12:45:07.812Z,48.29
2019-04-27T12:46:07.808Z,48.32
2019-04-27T12:47:07.811Z,49.88
2019-04-27T12:48:07.787Z,48.24
2019-04-27T12:49:07.772Z,46.88
2019-04-27T12:50:07.789Z,46.35
2019-04-27T12:51:07.780Z,46.28
2019-04-27T12:52:07.803Z,47.29